Time;durP1;ratioP1;P1;durP2;ratioP2;P2;SDS_P1;SDS_P2;PMS_P1;PMS_P2;Temp;Humidity;BMP_temperature;BMP_pressure;BME280_temperature;BME280_humidity;BME280_pressure;Samples;Min_cycle;Max_cycle;Signal;HPM_P1;HPM_P2
2022/01/19 00:01:23;;;;;;;;;27.00;25.00;;;;;;;;4973469;28;51629;-47
2022/01/19 00:04:11;;;;;;;;;26.25;24.25;;;;;;;;4968846;28;51163;-49
2022/01/19 00:06:57;;;;;;;;;30.75;24.25;;;;;;;;4972615;28;51331;-45
2022/01/19 00:09:41;;;;;;;;;29.75;28.75;;;;;;;;4970549;28;51289;-47
2022/01/19 00:12:36;;;;;;;;;26.50;24.00;;;;;;;;4968124;28;51417;-50
2022/01/19 00:15:22;;;;;;;;;28.50;26.00;;;;;;;;4971004;28;51160;-46
2022/01/19 00:18:06;;;;;;;;;28.50;27.50;;;;;;;;4974464;28;51179;-48
2022/01/19 00:20:54;;;;;;;;;38.50;29.00;;;;;;;;4974098;28;51549;-48
2022/01/19 00:23:39;;;;;;;;;28.50;27.00;;;;;;;;4974097;28;51148;-48
2022/01/19 00:26:25;;;;;;;;;30.75;25.00;;;;;;;;4973964;28;51648;-47
2022/01/19 00:29:10;;;;;;;;;28.00;25.75;;;;;;;;4972686;28;51358;-48
2022/01/19 00:31:56;;;;;;;;;28.75;24.25;;;;;;;;4970335;28;51327;-46
2022/01/19 00:34:42;;;;;;;;;30.50;25.75;;;;;;;;4974376;28;51171;-47
2022/01/19 00:37:39;;;;;;;;;31.50;26.75;;;;;;;;4968409;28;52405;-48
2022/01/19 00:40:25;;;;;;;;;29.75;28.00;;;;;;;;4965532;28;51331;-47
2022/01/19 00:43:09;;;;;;;;;33.00;28.00;;;;;;;;4976693;28;51243;-48
2022/01/19 00:45:54;;;;;;;;;27.00;24.00;;;;;;;;4973071;28;51301;-49
2022/01/19 00:48:41;;;;;;;;;32.75;28.50;;;;;;;;4972786;28;51275;-47
2022/01/19 00:51:31;;;;;;;;;29.75;26.75;;;;;;;;4971428;28;51501;-48
2022/01/19 00:54:18;;;;;;;;;29.00;25.50;;;;;;;;4971229;28;51557;-50
2022/01/19 00:57:13;;;;;;;;;31.25;27.00;;;;;;;;4970455;28;51175;-46
2022/01/19 00:59:57;;;;;;;;;34.25;27.75;;;;;;;;4971727;28;51191;-49
2022/01/19 01:03:14;;;;;;;;;31.50;29.00;;;;;;;;4971923;28;51908;-48
2022/01/19 01:06:00;;;;;;;;;35.25;29.25;;;;;;;;4972544;28;51233;-46
2022/01/19 01:08:51;;;;;;;;;31.50;29.50;;;;;;;;4974820;28;51248;-47
2022/01/19 01:11:46;;;;;;;;;34.75;30.00;;;;;;;;4973725;28;51176;-47
2022/01/19 01:20:40;;;;;;;;;36.50;31.50;;;;;;;;4971475;28;52679;-46
2022/01/19 01:23:29;;;;;;;;;32.50;27.25;;;;;;;;4974904;28;51168;-46
2022/01/19 01:26:17;;;;;;;;;32.25;30.25;;;;;;;;4979091;28;51230;-48
2022/01/19 01:29:01;;;;;;;;;33.50;30.25;;;;;;;;4978207;28;51164;-47
2022/01/19 01:31:48;;;;;;;;;37.75;32.25;;;;;;;;4974773;28;51270;-46
2022/01/19 01:34:36;;;;;;;;;36.50;31.25;;;;;;;;4979198;28;51293;-46
2022/01/19 01:37:21;;;;;;;;;32.25;30.50;;;;;;;;4980899;28;51467;-47
2022/01/19 01:40:08;;;;;;;;;35.50;30.50;;;;;;;;4979893;28;51232;-49
2022/01/19 01:42:53;;;;;;;;;29.50;29.00;;;;;;;;4978540;28;51556;-46
2022/01/19 01:45:53;;;;;;;;;33.25;31.25;;;;;;;;4976997;28;51260;-49
2022/01/19 01:48:45;;;;;;;;;40.75;32.00;;;;;;;;4975249;28;51238;-49
2022/01/19 01:54:34;;;;;;;;;40.50;34.75;;;;;;;;4976540;28;51691;-48
2022/01/19 01:57:29;;;;;;;;;48.50;38.00;;;;;;;;4975095;28;52026;-49
2022/01/19 02:00:21;;;;;;;;;50.50;39.75;;;;;;;;4978327;28;52705;-46
2022/01/19 02:03:16;;;;;;;;;54.25;43.00;;;;;;;;4975200;28;51247;-48
2022/01/19 02:09:17;;;;;;;;;54.00;43.50;;;;;;;;4977708;28;51119;-49
2022/01/19 02:16:11;;;;;;;;;58.50;45.25;;;;;;;;4976119;28;51318;-49
2022/01/19 02:24:45;;;;;;;;;50.25;40.50;;;;;;;;4974662;28;51192;-46
2022/01/19 02:40:26;;;;;;;;;50.75;41.50;;;;;;;;4969780;28;51199;-47
2022/01/19 02:43:20;;;;;;;;;51.75;40.00;;;;;;;;4970904;28;51593;-46
2022/01/19 02:49:29;;;;;;;;;54.00;40.25;;;;;;;;4977397;28;51643;-46
2022/01/19 02:52:14;;;;;;;;;52.50;40.50;;;;;;;;4975336;28;51449;-47
2022/01/19 02:55:03;;;;;;;;;47.75;39.25;;;;;;;;4978485;28;51187;-47
2022/01/19 02:57:50;;;;;;;;;47.75;40.50;;;;;;;;4973700;28;51171;-47
2022/01/19 03:09:49;;;;;;;;;53.75;43.25;;;;;;;;4956083;28;51612;-45
2022/01/19 03:12:40;;;;;;;;;55.25;43.00;;;;;;;;4979111;28;51169;-47
2022/01/19 03:15:28;;;;;;;;;50.50;40.75;;;;;;;;4973603;28;51423;-46
2022/01/19 03:18:15;;;;;;;;;54.50;42.75;;;;;;;;4976773;28;51321;-45
2022/01/19 03:21:01;;;;;;;;;49.75;42.25;;;;;;;;4972074;28;51109;-47
2022/01/19 03:23:48;;;;;;;;;60.00;47.00;;;;;;;;4973203;28;51180;-46
2022/01/19 03:26:34;;;;;;;;;60.75;46.75;;;;;;;;4974098;28;51192;-47
2022/01/19 03:29:20;;;;;;;;;53.75;42.00;;;;;;;;4973049;28;51214;-46
2022/01/19 03:32:05;;;;;;;;;60.75;45.00;;;;;;;;4974250;28;51024;-46
2022/01/19 03:34:51;;;;;;;;;51.25;39.75;;;;;;;;4973806;28;51350;-48
2022/01/19 03:37:36;;;;;;;;;52.00;41.25;;;;;;;;4973350;28;51112;-46
2022/01/19 03:40:22;;;;;;;;;50.75;40.75;;;;;;;;4975848;28;51578;-48
2022/01/19 03:43:08;;;;;;;;;48.50;39.25;;;;;;;;4975653;28;51201;-46
2022/01/19 03:45:58;;;;;;;;;52.00;41.50;;;;;;;;4973135;28;51217;-50
2022/01/19 03:49:12;;;;;;;;;52.75;41.25;;;;;;;;4971066;28;51260;-47
2022/01/19 03:51:58;;;;;;;;;56.00;45.25;;;;;;;;4973879;28;51199;-47
2022/01/19 03:54:46;;;;;;;;;61.00;46.00;;;;;;;;4972274;28;51271;-46
2022/01/19 03:57:34;;;;;;;;;58.75;45.75;;;;;;;;4972353;28;51188;-46
2022/01/19 04:00:42;;;;;;;;;60.25;47.50;;;;;;;;4971337;28;51910;-46
2022/01/19 04:09:51;;;;;;;;;61.50;47.50;;;;;;;;4975381;28;51312;-47
2022/01/19 04:12:52;;;;;;;;;66.50;53.25;;;;;;;;4974830;28;51448;-46
2022/01/19 04:15:39;;;;;;;;;62.00;48.25;;;;;;;;4976645;28;51643;-48
2022/01/19 04:18:51;;;;;;;;;66.75;51.25;;;;;;;;4974234;28;51163;-49
2022/01/19 04:21:53;;;;;;;;;63.50;49.25;;;;;;;;4972149;28;51240;-47
2022/01/19 04:24:41;;;;;;;;;61.25;47.50;;;;;;;;4971361;28;51133;-47
2022/01/19 04:27:51;;;;;;;;;63.25;51.00;;;;;;;;4971745;28;52414;-46
2022/01/19 04:30:57;;;;;;;;;65.00;50.75;;;;;;;;4971839;28;51178;-47
2022/01/19 04:33:44;;;;;;;;;62.00;48.00;;;;;;;;4976136;28;51791;-47
2022/01/19 04:36:58;;;;;;;;;62.75;48.50;;;;;;;;4975710;28;51189;-46
2022/01/19 05:03:50;;;;;;;;;45.25;33.25;;;;;;;;5068743;28;51310;-47
2022/01/19 05:06:44;;;;;;;;;36.00;32.25;;;;;;;;5069106;28;50987;-51
2022/01/19 05:15:48;;;;;;;;;43.00;35.25;;;;;;;;5072191;28;51175;-46
2022/01/19 05:18:54;;;;;;;;;39.00;32.75;;;;;;;;5068022;28;51024;-48
2022/01/19 05:21:39;;;;;;;;;39.75;32.25;;;;;;;;5072319;28;51148;-47
2022/01/19 05:24:45;;;;;;;;;39.25;33.00;;;;;;;;5069585;28;51129;-45
2022/01/19 05:27:47;;;;;;;;;45.00;34.50;;;;;;;;5070664;28;51197;-47
2022/01/19 05:30:43;;;;;;;;;50.00;41.50;;;;;;;;5068075;28;51299;-48
2022/01/19 05:33:29;;;;;;;;;44.50;35.50;;;;;;;;5069172;28;51244;-48
2022/01/19 05:36:14;;;;;;;;;49.00;38.25;;;;;;;;5073455;28;51676;-47
2022/01/19 05:39:04;;;;;;;;;48.25;35.75;;;;;;;;5073503;28;51177;-47
2022/01/19 05:41:59;;;;;;;;;43.25;32.25;;;;;;;;5073238;28;51003;-46
2022/01/19 05:45:06;;;;;;;;;44.25;37.00;;;;;;;;5069841;28;51119;-46
2022/01/19 05:47:50;;;;;;;;;45.25;36.25;;;;;;;;5072270;28;51061;-49
2022/01/19 05:50:39;;;;;;;;;38.00;33.75;;;;;;;;5065366;28;51176;-48
2022/01/19 05:53:36;;;;;;;;;43.00;35.25;;;;;;;;5069259;28;51152;-46
2022/01/19 05:56:26;;;;;;;;;42.75;37.25;;;;;;;;5068869;28;51462;-47
2022/01/19 05:59:13;;;;;;;;;49.50;40.25;;;;;;;;5052613;28;51054;-47
2022/01/19 06:02:11;;;;;;;;;62.50;48.25;;;;;;;;5059582;28;51043;-50
2022/01/19 06:04:57;;;;;;;;;60.50;47.25;;;;;;;;5053931;28;51188;-46
2022/01/19 06:07:45;;;;;;;;;55.75;43.75;;;;;;;;5053782;28;51090;-48
2022/01/19 06:10:54;;;;;;;;;54.25;44.25;;;;;;;;5058189;28;51547;-45
2022/01/19 06:14:01;;;;;;;;;56.75;42.25;;;;;;;;5056499;28;51226;-45
2022/01/19 06:16:47;;;;;;;;;49.25;38.75;;;;;;;;5056851;28;51203;-48
2022/01/19 06:19:31;;;;;;;;;52.25;43.50;;;;;;;;5056226;28;51282;-45
2022/01/19 06:22:21;;;;;;;;;54.75;42.75;;;;;;;;5056022;28;51364;-43
2022/01/19 06:25:05;;;;;;;;;53.50;44.00;;;;;;;;5057948;28;51083;-45
2022/01/19 06:27:51;;;;;;;;;55.00;43.00;;;;;;;;5060672;28;51082;-44
2022/01/19 06:30:36;;;;;;;;;55.75;43.25;;;;;;;;5060233;28;51292;-42
2022/01/19 06:33:21;;;;;;;;;55.75;44.00;;;;;;;;5061285;28;51157;-43
2022/01/19 06:36:07;;;;;;;;;59.25;46.75;;;;;;;;5058519;28;51170;-43
2022/01/19 06:38:59;;;;;;;;;60.25;48.75;;;;;;;;5056666;28;51530;-43
2022/01/19 06:41:55;;;;;;;;;58.50;47.00;;;;;;;;5051656;28;51168;-44
2022/01/19 06:44:41;;;;;;;;;64.00;49.25;;;;;;;;5053391;28;51331;-47
2022/01/19 06:47:25;;;;;;;;;61.00;47.50;;;;;;;;5068694;27;51106;-44
2022/01/19 06:50:11;;;;;;;;;62.50;50.25;;;;;;;;5054279;28;51191;-44
2022/01/19 06:52:59;;;;;;;;;81.50;71.75;;;;;;;;5055190;28;51502;-44
2022/01/19 06:55:57;;;;;;;;;78.50;71.00;;;;;;;;5053723;28;51200;-43
2022/01/19 06:58:46;;;;;;;;;65.75;52.50;;;;;;;;5056211;28;51597;-43
2022/01/19 07:01:52;;;;;;;;;68.25;53.00;;;;;;;;5053237;28;51079;-43
2022/01/19 07:04:39;;;;;;;;;64.75;50.00;;;;;;;;5053536;28;51667;-45
2022/01/19 07:07:25;;;;;;;;;66.50;50.50;;;;;;;;5052696;28;51674;-42
2022/01/19 07:10:11;;;;;;;;;64.25;50.75;;;;;;;;5054010;28;51521;-47
2022/01/19 07:13:17;;;;;;;;;66.00;50.75;;;;;;;;5058108;28;51089;-42
2022/01/19 07:16:04;;;;;;;;;67.00;52.25;;;;;;;;5052391;28;51193;-44
2022/01/19 07:18:48;;;;;;;;;67.75;53.50;;;;;;;;5053665;28;51914;-46
2022/01/19 07:21:37;;;;;;;;;65.00;51.75;;;;;;;;5048175;28;51229;-44
2022/01/19 07:24:40;;;;;;;;;68.25;53.75;;;;;;;;5054851;28;51126;-43
2022/01/19 07:27:25;;;;;;;;;62.50;51.00;;;;;;;;5059350;28;51519;-44
2022/01/19 07:30:13;;;;;;;;;69.75;52.00;;;;;;;;5059021;28;51593;-42
2022/01/19 07:32:58;;;;;;;;;70.00;53.25;;;;;;;;5057014;28;51140;-43
2022/01/19 07:35:42;;;;;;;;;70.00;55.50;;;;;;;;5057441;28;51049;-45
2022/01/19 07:38:29;;;;;;;;;70.00;58.00;;;;;;;;5053253;28;51452;-44
2022/01/19 07:41:27;;;;;;;;;66.25;51.25;;;;;;;;5050781;28;51178;-44
2022/01/19 07:44:22;;;;;;;;;64.50;50.75;;;;;;;;5051301;28;51164;-43
2022/01/19 07:47:13;;;;;;;;;64.50;50.25;;;;;;;;5049910;28;51084;-45
2022/01/19 07:49:58;;;;;;;;;62.25;50.25;;;;;;;;5052799;28;51269;-43
2022/01/19 07:52:47;;;;;;;;;65.50;50.00;;;;;;;;5048517;28;51162;-44
2022/01/19 07:55:49;;;;;;;;;63.50;50.50;;;;;;;;5050118;28;51630;-45
2022/01/19 07:58:33;;;;;;;;;63.00;50.50;;;;;;;;5049745;28;51043;-44
2022/01/19 08:01:19;;;;;;;;;62.00;49.25;;;;;;;;5047518;28;51137;-44
2022/01/19 08:04:03;;;;;;;;;71.50;55.75;;;;;;;;5049428;28;51110;-44
2022/01/19 08:07:00;;;;;;;;;70.00;54.50;;;;;;;;5050044;28;51125;-45
2022/01/19 08:09:46;;;;;;;;;69.00;56.00;;;;;;;;5051837;28;51559;-43
2022/01/19 08:12:37;;;;;;;;;66.75;53.00;;;;;;;;5051483;28;51058;-45
2022/01/19 08:15:24;;;;;;;;;74.25;65.00;;;;;;;;5053665;28;51122;-45
2022/01/19 08:18:10;;;;;;;;;69.25;54.75;;;;;;;;5051232;28;51082;-43
2022/01/19 08:20:56;;;;;;;;;75.25;66.25;;;;;;;;5053344;28;51072;-42
2022/01/19 08:23:42;;;;;;;;;75.75;64.75;;;;;;;;5050078;28;51169;-46
2022/01/19 08:26:33;;;;;;;;;73.50;60.75;;;;;;;;5047415;28;52578;-45
2022/01/19 08:29:26;;;;;;;;;72.25;59.00;;;;;;;;5037260;28;51150;-45
2022/01/19 08:32:11;;;;;;;;;68.25;53.75;;;;;;;;5052399;28;51120;-43
2022/01/19 08:34:55;;;;;;;;;72.25;59.75;;;;;;;;5056523;28;51617;-44
2022/01/19 08:37:40;;;;;;;;;72.00;59.25;;;;;;;;5050594;28;51141;-44
2022/01/19 08:40:30;;;;;;;;;66.75;53.25;;;;;;;;5057406;28;51254;-42
2022/01/19 08:43:24;;;;;;;;;63.50;50.00;;;;;;;;5050165;28;51405;-42
2022/01/19 08:46:16;;;;;;;;;71.00;54.00;;;;;;;;5053440;28;51185;-46
2022/01/19 08:49:00;;;;;;;;;67.25;52.00;;;;;;;;5044143;28;51153;-44
2022/01/19 08:51:45;;;;;;;;;75.25;62.00;;;;;;;;5054206;28;51300;-44
2022/01/19 08:54:30;;;;;;;;;69.25;54.75;;;;;;;;5053181;28;51337;-42
2022/01/19 08:57:17;;;;;;;;;75.00;61.25;;;;;;;;5057381;28;51216;-45
2022/01/19 09:00:04;;;;;;;;;73.50;60.50;;;;;;;;5056391;28;51520;-41
2022/01/19 09:02:51;;;;;;;;;77.25;68.50;;;;;;;;5056877;28;51279;-46
2022/01/19 09:05:36;;;;;;;;;73.25;64.00;;;;;;;;5055544;28;51256;-42
2022/01/19 09:08:21;;;;;;;;;72.50;63.75;;;;;;;;5051836;28;51422;-45
2022/01/19 09:11:08;;;;;;;;;75.50;67.00;;;;;;;;5053057;28;51530;-45
2022/01/19 09:13:57;;;;;;;;;71.25;59.25;;;;;;;;5056566;28;51438;-44
2022/01/19 09:17:07;;;;;;;;;73.75;61.25;;;;;;;;5048484;28;51172;-42
2022/01/19 09:20:06;;;;;;;;;69.75;60.00;;;;;;;;5055859;28;51533;-46
2022/01/19 09:23:11;;;;;;;;;69.25;56.00;;;;;;;;5055623;28;51253;-43
2022/01/19 09:26:03;;;;;;;;;71.00;57.50;;;;;;;;5051858;28;51579;-44
2022/01/19 09:28:49;;;;;;;;;67.75;57.00;;;;;;;;5057508;28;51022;-44
2022/01/19 09:31:34;;;;;;;;;69.75;54.50;;;;;;;;5057135;28;51098;-46
2022/01/19 09:34:35;;;;;;;;;67.75;52.50;;;;;;;;5053997;28;51454;-44
2022/01/19 09:37:28;;;;;;;;;62.50;51.25;;;;;;;;5045591;27;51246;-42
2022/01/19 09:40:34;;;;;;;;;66.25;54.00;;;;;;;;5043117;28;51289;-44
2022/01/19 09:43:21;;;;;;;;;60.25;49.25;;;;;;;;5054196;28;51155;-42
2022/01/19 09:46:09;;;;;;;;;68.75;56.50;;;;;;;;5059218;28;51377;-43
2022/01/19 09:48:56;;;;;;;;;62.25;49.50;;;;;;;;5058792;28;51090;-47
2022/01/19 09:51:54;;;;;;;;;64.75;52.00;;;;;;;;5060923;28;51176;-44
2022/01/19 09:54:39;;;;;;;;;65.25;50.75;;;;;;;;5057257;28;51572;-45
2022/01/19 09:57:44;;;;;;;;;66.25;51.25;;;;;;;;5059616;28;51090;-44
2022/01/19 10:00:32;;;;;;;;;63.00;49.50;;;;;;;;5056617;28;51205;-46
2022/01/19 10:03:28;;;;;;;;;59.50;49.00;;;;;;;;5059406;28;51254;-44
2022/01/19 10:06:17;;;;;;;;;62.75;49.50;;;;;;;;5059003;28;51154;-44
2022/01/19 10:09:02;;;;;;;;;68.00;57.25;;;;;;;;5058878;28;51170;-45
2022/01/19 10:17:38;;;;;;;;;67.25;56.50;;;;;;;;5050908;28;51633;-46
2022/01/19 10:20:24;;;;;;;;;68.50;56.00;;;;;;;;5057835;28;52551;-44
2022/01/19 10:23:27;;;;;;;;;67.75;52.50;;;;;;;;5058587;28;51192;-44
2022/01/19 10:26:13;;;;;;;;;65.50;51.25;;;;;;;;5055543;28;51134;-46
2022/01/19 10:29:02;;;;;;;;;65.00;51.00;;;;;;;;5057669;28;51722;-46
2022/01/19 10:31:47;;;;;;;;;66.25;52.25;;;;;;;;5054153;28;51255;-44
2022/01/19 10:34:33;;;;;;;;;63.00;49.75;;;;;;;;5059020;28;51080;-46
2022/01/19 10:37:22;;;;;;;;;61.00;48.00;;;;;;;;5054492;28;51390;-45
2022/01/19 10:40:06;;;;;;;;;63.00;50.75;;;;;;;;5058248;28;51405;-44
2022/01/19 10:42:50;;;;;;;;;63.25;49.25;;;;;;;;5056795;28;51193;-44
2022/01/19 10:45:35;;;;;;;;;68.00;53.50;;;;;;;;5058613;28;51110;-45
2022/01/19 10:48:39;;;;;;;;;66.00;53.25;;;;;;;;5056216;28;51256;-46
2022/01/19 10:51:24;;;;;;;;;67.25;53.75;;;;;;;;5058880;28;51117;-47
2022/01/19 10:54:14;;;;;;;;;74.25;66.75;;;;;;;;5054975;28;51172;-43
2022/01/19 10:56:59;;;;;;;;;65.50;52.00;;;;;;;;5049296;28;51193;-47
2022/01/19 10:59:44;;;;;;;;;60.50;48.25;;;;;;;;5052936;28;51602;-44
2022/01/19 11:02:35;;;;;;;;;71.50;60.00;;;;;;;;5052182;28;51222;-46
2022/01/19 11:05:39;;;;;;;;;70.50;57.50;;;;;;;;5055525;28;51257;-45
2022/01/19 11:08:25;;;;;;;;;65.75;53.75;;;;;;;;5058246;28;51185;-44
2022/01/19 11:11:09;;;;;;;;;68.75;59.25;;;;;;;;5058949;28;51268;-45
2022/01/19 11:13:56;;;;;;;;;69.50;59.00;;;;;;;;5051736;28;51518;-43
2022/01/19 11:16:42;;;;;;;;;70.75;61.00;;;;;;;;5055748;28;51207;-47
2022/01/19 11:19:26;;;;;;;;;70.25;61.25;;;;;;;;5057240;28;51227;-45
2022/01/19 11:22:17;;;;;;;;;67.00;54.50;;;;;;;;5056301;28;51051;-44
2022/01/19 11:25:01;;;;;;;;;63.50;52.75;;;;;;;;5053383;28;51262;-45
2022/01/19 11:27:46;;;;;;;;;69.00;56.25;;;;;;;;5056214;28;51428;-43
2022/01/19 11:30:32;;;;;;;;;67.00;57.50;;;;;;;;5056533;28;51187;-47
2022/01/19 11:33:27;;;;;;;;;67.75;56.50;;;;;;;;5055805;28;51538;-44
2022/01/19 11:36:19;;;;;;;;;66.75;52.75;;;;;;;;5051551;28;51460;-47
2022/01/19 11:39:05;;;;;;;;;68.75;55.75;;;;;;;;5050196;28;51255;-44
2022/01/19 11:41:50;;;;;;;;;67.75;56.00;;;;;;;;5053197;28;51130;-45
2022/01/19 11:44:35;;;;;;;;;65.00;54.25;;;;;;;;5053188;28;51679;-43
2022/01/19 11:47:24;;;;;;;;;66.00;52.75;;;;;;;;5054575;28;51447;-45
2022/01/19 11:50:18;;;;;;;;;58.75;47.25;;;;;;;;5051558;28;51078;-44
2022/01/19 11:53:08;;;;;;;;;67.50;52.50;;;;;;;;5053385;28;51515;-44
2022/01/19 11:56:00;;;;;;;;;63.00;52.00;;;;;;;;5046680;28;51214;-42
2022/01/19 11:59:00;;;;;;;;;67.50;55.25;;;;;;;;5052724;28;51337;-47
2022/01/19 12:01:45;;;;;;;;;64.75;50.00;;;;;;;;5049977;28;51252;-41
2022/01/19 12:04:37;;;;;;;;;65.25;52.75;;;;;;;;5052408;28;51080;-42
2022/01/19 12:07:34;;;;;;;;;62.75;49.00;;;;;;;;5052637;28;51233;-42
2022/01/19 12:10:32;;;;;;;;;64.75;49.75;;;;;;;;5047342;28;51444;-42
2022/01/19 12:16:24;;;;;;;;;66.25;53.25;;;;;;;;5051669;28;51129;-44
2022/01/19 12:19:13;;;;;;;;;66.00;52.25;;;;;;;;5056015;28;51092;-44
2022/01/19 12:22:05;;;;;;;;;62.25;49.00;;;;;;;;5047622;28;51228;-43
2022/01/19 12:24:57;;;;;;;;;70.75;57.75;;;;;;;;5055068;28;51158;-44
2022/01/19 12:27:49;;;;;;;;;65.25;52.00;;;;;;;;5048606;28;51066;-43
2022/01/19 12:30:33;;;;;;;;;64.50;52.50;;;;;;;;5052581;28;51083;-48
2022/01/19 12:33:17;;;;;;;;;64.00;50.50;;;;;;;;5056884;28;51057;-49
2022/01/19 12:36:02;;;;;;;;;66.75;51.50;;;;;;;;5057506;28;51912;-48
2022/01/19 12:38:46;;;;;;;;;63.00;49.25;;;;;;;;5057758;28;51208;-47
2022/01/19 12:41:51;;;;;;;;;58.00;46.25;;;;;;;;5058349;28;51051;-48
2022/01/19 12:44:35;;;;;;;;;65.75;50.25;;;;;;;;5049863;28;51398;-48
2022/01/19 12:47:28;;;;;;;;;66.75;52.75;;;;;;;;5056238;28;51205;-49
2022/01/19 12:50:13;;;;;;;;;65.50;50.50;;;;;;;;5056106;28;51354;-46
2022/01/19 12:53:05;;;;;;;;;65.75;51.50;;;;;;;;5055232;28;51128;-46
2022/01/19 12:55:51;;;;;;;;;64.50;50.25;;;;;;;;5057326;28;51071;-46
2022/01/19 12:58:36;;;;;;;;;62.75;49.25;;;;;;;;5058059;28;51367;-44
2022/01/19 13:01:21;;;;;;;;;64.50;50.25;;;;;;;;5056098;28;51622;-49
2022/01/19 13:04:05;;;;;;;;;65.50;51.75;;;;;;;;5046142;28;51157;-47
2022/01/19 13:06:49;;;;;;;;;63.00;48.75;;;;;;;;5046596;28;51664;-46
2022/01/19 13:09:38;;;;;;;;;65.25;50.50;;;;;;;;5059548;28;51505;-50
2022/01/19 13:12:31;;;;;;;;;65.25;50.25;;;;;;;;5062149;28;51067;-49
2022/01/19 13:15:16;;;;;;;;;64.75;50.00;;;;;;;;5054310;28;51067;-50
2022/01/19 13:18:00;;;;;;;;;69.25;56.75;;;;;;;;5058762;28;51088;-50
2022/01/19 13:20:51;;;;;;;;;63.75;50.50;;;;;;;;5059154;28;51479;-50
2022/01/19 13:23:37;;;;;;;;;67.25;54.25;;;;;;;;5059574;28;51157;-49
2022/01/19 13:26:22;;;;;;;;;66.75;51.25;;;;;;;;5045365;28;51678;-47
2022/01/19 13:29:13;;;;;;;;;70.50;57.50;;;;;;;;5050163;28;51173;-47
2022/01/19 13:32:02;;;;;;;;;64.75;51.75;;;;;;;;5049072;28;51198;-47
2022/01/19 13:34:49;;;;;;;;;65.50;51.25;;;;;;;;5048039;28;51193;-49
2022/01/19 13:37:38;;;;;;;;;63.50;50.75;;;;;;;;5051990;28;51153;-48
2022/01/19 13:40:24;;;;;;;;;56.25;44.25;;;;;;;;5048731;28;51190;-51
2022/01/19 13:43:16;;;;;;;;;56.50;47.00;;;;;;;;5047140;28;51193;-51
2022/01/19 13:46:12;;;;;;;;;47.50;36.25;;;;;;;;5053721;28;52099;-49
2022/01/19 13:48:58;;;;;;;;;58.00;45.00;;;;;;;;5047024;28;51207;-51
2022/01/19 13:51:43;;;;;;;;;61.25;46.75;;;;;;;;5048005;28;51146;-46
2022/01/19 13:54:28;;;;;;;;;65.50;49.75;;;;;;;;5054046;28;51157;-51
2022/01/19 13:57:12;;;;;;;;;63.50;48.75;;;;;;;;5055292;28;51221;-47
2022/01/19 14:00:10;;;;;;;;;63.75;51.25;;;;;;;;5052164;28;51154;-49
2022/01/19 14:02:57;;;;;;;;;66.50;53.75;;;;;;;;5052044;28;51190;-53
2022/01/19 14:05:46;;;;;;;;;70.25;55.25;;;;;;;;5054219;28;51117;-49
2022/01/19 14:08:32;;;;;;;;;72.00;57.25;;;;;;;;5052051;28;51122;-51
2022/01/19 14:11:25;;;;;;;;;70.25;57.50;;;;;;;;5057888;28;51502;-46
2022/01/19 14:14:11;;;;;;;;;72.75;60.50;;;;;;;;5049155;27;51212;-47
2022/01/19 14:16:56;;;;;;;;;68.25;58.50;;;;;;;;5058395;27;51753;-50
2022/01/19 14:19:44;;;;;;;;;72.00;59.50;;;;;;;;5056605;28;51220;-47
2022/01/19 14:22:30;;;;;;;;;65.50;52.50;;;;;;;;5053797;28;51126;-47
2022/01/19 14:25:18;;;;;;;;;67.25;53.25;;;;;;;;5057809;28;51148;-49
2022/01/19 14:28:12;;;;;;;;;68.25;56.75;;;;;;;;5056990;28;51133;-51
2022/01/19 14:31:01;;;;;;;;;69.50;56.25;;;;;;;;5052472;28;51612;-51
2022/01/19 14:33:49;;;;;;;;;69.50;56.50;;;;;;;;5060870;28;51106;-48
2022/01/19 14:36:34;;;;;;;;;73.75;61.75;;;;;;;;5060589;28;51404;-49
2022/01/19 14:39:18;;;;;;;;;70.00;55.75;;;;;;;;5059660;28;51154;-48
2022/01/19 14:42:09;;;;;;;;;70.50;56.75;;;;;;;;5057371;28;51596;-49
2022/01/19 14:45:02;;;;;;;;;71.00;58.75;;;;;;;;5057378;28;51150;-51
2022/01/19 14:47:46;;;;;;;;;67.50;52.00;;;;;;;;5060342;28;51418;-51
2022/01/19 14:50:35;;;;;;;;;70.25;59.25;;;;;;;;5059776;28;51498;-52
2022/01/19 14:53:20;;;;;;;;;72.00;59.75;;;;;;;;5059848;28;51200;-49
2022/01/19 14:56:05;;;;;;;;;73.00;57.00;;;;;;;;5055125;28;51059;-49
2022/01/19 14:59:19;;;;;;;;;69.75;53.50;;;;;;;;5056473;28;51148;-50
2022/01/19 15:02:04;;;;;;;;;70.50;55.50;;;;;;;;5048787;28;51423;-51
2022/01/19 15:04:48;;;;;;;;;70.25;57.25;;;;;;;;5059797;28;51466;-51
2022/01/19 15:07:33;;;;;;;;;70.00;58.00;;;;;;;;5059211;28;51776;-52
2022/01/19 15:10:18;;;;;;;;;68.00;55.75;;;;;;;;5049904;28;51220;-50
2022/01/19 15:13:04;;;;;;;;;70.00;53.75;;;;;;;;5050690;28;51502;-50
2022/01/19 15:15:48;;;;;;;;;68.25;55.00;;;;;;;;5069925;27;51271;-50
2022/01/19 15:18:32;;;;;;;;;71.50;58.50;;;;;;;;5057904;28;52887;-51
2022/01/19 15:21:18;;;;;;;;;69.50;55.50;;;;;;;;5059536;28;51115;-51
2022/01/19 15:24:04;;;;;;;;;66.75;53.50;;;;;;;;5056167;28;51135;-48
2022/01/19 15:26:48;;;;;;;;;69.75;53.50;;;;;;;;5054165;28;51520;-51
2022/01/19 15:29:33;;;;;;;;;67.00;51.75;;;;;;;;5055791;28;51131;-55
2022/01/19 15:32:18;;;;;;;;;70.00;58.75;;;;;;;;5052659;28;51180;-53
2022/01/19 15:35:03;;;;;;;;;70.00;58.50;;;;;;;;5054838;28;51188;-52
2022/01/19 15:37:47;;;;;;;;;68.50;56.00;;;;;;;;5054147;28;51201;-50
2022/01/19 15:40:32;;;;;;;;;70.75;59.25;;;;;;;;5055624;28;51483;-51
2022/01/19 15:43:18;;;;;;;;;71.25;55.25;;;;;;;;5043914;28;51264;-51
2022/01/19 15:46:03;;;;;;;;;70.00;58.75;;;;;;;;5046454;28;51225;-52
2022/01/19 15:48:47;;;;;;;;;66.75;52.25;;;;;;;;5051496;28;51025;-49
2022/01/19 15:51:31;;;;;;;;;56.75;45.75;;;;;;;;5050169;28;51607;-52
2022/01/19 15:54:16;;;;;;;;;66.50;53.00;;;;;;;;5053516;28;51148;-51
2022/01/19 15:57:01;;;;;;;;;70.25;55.25;;;;;;;;5053958;28;51654;-51
2022/01/19 15:59:45;;;;;;;;;70.50;56.75;;;;;;;;5055835;28;51439;-50
2022/01/19 16:02:30;;;;;;;;;67.00;53.25;;;;;;;;5054869;28;51235;-52
2022/01/19 16:05:14;;;;;;;;;68.75;55.75;;;;;;;;5055639;28;51198;-48
2022/01/19 16:07:59;;;;;;;;;70.25;55.50;;;;;;;;5056023;28;51161;-50
2022/01/19 16:10:44;;;;;;;;;67.25;52.75;;;;;;;;5055859;28;51155;-49
2022/01/19 16:13:29;;;;;;;;;68.50;55.50;;;;;;;;5057712;28;51217;-49
2022/01/19 16:16:13;;;;;;;;;68.50;56.50;;;;;;;;5047424;27;51185;-51
2022/01/19 16:18:58;;;;;;;;;69.75;56.75;;;;;;;;5055650;28;51037;-53
2022/01/19 16:21:43;;;;;;;;;69.75;57.75;;;;;;;;5055977;28;51571;-51
2022/01/19 16:27:29;;;;;;;;;74.00;61.00;;;;;;;;5055327;28;51095;-48
2022/01/19 16:30:14;;;;;;;;;71.75;56.25;;;;;;;;5053831;28;51368;-52
2022/01/19 16:32:58;;;;;;;;;72.50;62.00;;;;;;;;5054963;28;51073;-48
2022/01/19 16:35:44;;;;;;;;;70.75;56.50;;;;;;;;5053081;28;51179;-50
2022/01/19 16:38:28;;;;;;;;;71.00;56.75;;;;;;;;5055384;28;51201;-51
2022/01/19 16:41:17;;;;;;;;;80.75;67.50;;;;;;;;5056366;28;51122;-49
2022/01/19 16:44:02;;;;;;;;;74.25;61.25;;;;;;;;5056600;28;51065;-52
2022/01/19 16:46:46;;;;;;;;;72.00;55.75;;;;;;;;5051219;28;51682;-51
2022/01/19 16:49:31;;;;;;;;;70.00;56.25;;;;;;;;5051931;28;51170;-49
2022/01/19 16:52:15;;;;;;;;;78.00;64.75;;;;;;;;5053503;28;51212;-53
2022/01/19 16:55:00;;;;;;;;;65.50;53.75;;;;;;;;5055525;28;51062;-53
2022/01/19 16:57:45;;;;;;;;;72.25;60.00;;;;;;;;5053054;28;51172;-52
2022/01/19 17:00:30;;;;;;;;;74.00;57.25;;;;;;;;5052428;28;51245;-52
2022/01/19 17:03:14;;;;;;;;;72.25;59.00;;;;;;;;5053552;28;51048;-47
2022/01/19 17:06:00;;;;;;;;;71.50;57.00;;;;;;;;5053425;28;51152;-48
2022/01/19 17:08:45;;;;;;;;;67.50;57.00;;;;;;;;5055887;28;51107;-47
2022/01/19 17:11:29;;;;;;;;;67.25;52.50;;;;;;;;5053680;28;52131;-53
2022/01/19 17:14:21;;;;;;;;;72.25;58.75;;;;;;;;5055352;28;51112;-52
2022/01/19 17:17:12;;;;;;;;;72.25;61.00;;;;;;;;5056229;28;51275;-53
2022/01/19 17:20:03;;;;;;;;;72.50;59.00;;;;;;;;5055099;28;51554;-49
2022/01/19 17:22:47;;;;;;;;;74.75;65.50;;;;;;;;5054634;28;51150;-49
2022/01/19 17:25:32;;;;;;;;;70.00;58.00;;;;;;;;5055828;28;51166;-49
2022/01/19 17:28:16;;;;;;;;;70.00;55.75;;;;;;;;5050510;28;51205;-47
2022/01/19 17:31:00;;;;;;;;;72.50;56.75;;;;;;;;5051532;28;51467;-51
2022/01/19 17:33:45;;;;;;;;;73.75;59.25;;;;;;;;5052039;28;51138;-48
2022/01/19 17:36:29;;;;;;;;;70.50;56.00;;;;;;;;5054239;28;51039;-50
2022/01/19 17:39:14;;;;;;;;;70.75;54.75;;;;;;;;5053107;28;51154;-54
2022/01/19 17:41:58;;;;;;;;;71.50;57.25;;;;;;;;5052923;28;51174;-49
2022/01/19 17:44:43;;;;;;;;;70.25;55.50;;;;;;;;5054314;28;51352;-49
2022/01/19 17:47:52;;;;;;;;;72.25;60.25;;;;;;;;5052893;28;51722;-51
2022/01/19 17:50:53;;;;;;;;;71.50;60.25;;;;;;;;5051175;28;51556;-50
2022/01/19 17:53:37;;;;;;;;;67.75;54.00;;;;;;;;5052030;28;51200;-49
2022/01/19 17:56:22;;;;;;;;;63.75;51.25;;;;;;;;5055991;28;51589;-54
2022/01/19 17:59:07;;;;;;;;;67.75;53.25;;;;;;;;5059014;28;51137;-51